Terminal Aerodrome Forecast
Issued by NWS

Home | Current Version | Previous Version | Text Only | Print | Product List | Glossary On
Versions: 1 2 3 4 5 6 7 8 9 10 11 12 13 14 15
000
FTAK31 PAJN 242338
TAFAKT
TAF
PAKT 242338Z 2500/2524 15008KT P6SM VCSH SCT020 BKN040 OVC060
      TEMPO 2500/2503 -SHRA FEW008 BKN020 OVC040
     FM251200 VRB05KT P6SM BKN020 OVC040
      AMD LTD TO CLD VIS AND WIND 2506/2515=

USA.gov is the U.S. government's official web portal to all federal, state and local government web resources and services.